Time;durP1;ratioP1;P1;durP2;ratioP2;P2;SDS_P1;SDS_P2;PMS_P1;PMS_P2;Temp;Humidity;BMP_temperature;BMP_pressure;BME280_temperature;BME280_humidity;BME280_pressure;Samples;Min_cycle;Max_cycle;Signal;HPM_P1;HPM_P2
2024/04/02 00:01:37;;;;;;;0.57;0.57;;;;;;;12.43;78.73;98132.47;5113513;28;20040;-65
2024/04/02 00:04:11;;;;;;;0.30;0.30;;;;;;;12.33;78.99;98129.38;5113425;28;20051;-65
2024/04/02 00:06:38;;;;;;;0.40;0.40;;;;;;;12.27;78.88;98133.81;5113205;28;20060;-66
2024/04/02 00:09:06;;;;;;;1.85;1.25;;;;;;;12.22;79.08;98153.59;5096599;28;20048;-66
2024/04/02 00:11:33;;;;;;;0.32;0.32;;;;;;;12.15;79.31;98157.22;5113076;28;20067;-67
2024/04/02 00:14:00;;;;;;;0.30;0.30;;;;;;;12.17;79.46;98165.69;5096316;28;20036;-65
2024/04/02 00:16:27;;;;;;;0.40;0.40;;;;;;;12.14;79.39;98158.13;5113314;28;20057;-66
2024/04/02 00:18:56;;;;;;;0.60;0.60;;;;;;;12.10;79.70;98150.56;5112799;28;20040;-66
2024/04/02 00:21:23;;;;;;;0.40;0.40;;;;;;;12.13;79.52;98139.38;5113565;28;20390;-66
2024/04/02 00:23:50;;;;;;;0.40;0.40;;;;;;;12.07;79.67;98127.63;5113065;28;20040;-66
2024/04/02 00:26:18;;;;;;;0.30;0.30;;;;;;;12.05;79.83;98131.97;5113306;28;20039;-66
2024/04/02 00:28:49;;;;;;;0.40;0.40;;;;;;;11.98;79.79;98124.53;5112948;28;20044;-66
2024/04/02 00:31:15;;;;;;;0.32;0.32;;;;;;;12.01;80.24;98130.38;5112933;28;20413;-66
2024/04/02 00:33:43;;;;;;;0.30;0.30;;;;;;;11.95;80.30;98135.69;5112875;28;20040;-66
2024/04/02 00:36:11;;;;;;;0.30;0.30;;;;;;;11.95;80.41;98138.22;5112740;28;20081;-66
2024/04/02 00:38:39;;;;;;;0.40;0.40;;;;;;;11.97;80.54;98128.78;5112990;28;20509;-66
2024/04/02 00:41:06;;;;;;;0.40;0.40;;;;;;;11.92;80.48;98124.72;5113250;28;20393;-65
2024/04/02 00:43:33;;;;;;;0.40;0.40;;;;;;;11.87;80.59;98130.00;5113013;28;20044;-66
2024/04/02 00:46:01;;;;;;;0.30;0.30;;;;;;;11.68;80.29;98126.31;5112661;28;20516;-66
2024/04/02 00:48:29;;;;;;;0.30;0.30;;;;;;;11.66;80.10;98117.00;5096076;28;20073;-67
2024/04/02 00:50:56;;;;;;;0.40;0.40;;;;;;;11.61;80.26;98119.69;5113179;28;20542;-66
2024/04/02 00:53:25;;;;;;;0.30;0.30;;;;;;;11.64;80.48;98134.91;5114812;28;20036;-66
2024/04/02 00:55:53;;;;;;;0.93;0.93;;;;;;;11.65;80.38;98136.59;5116992;28;20057;-65
2024/04/02 00:58:22;;;;;;;0.40;0.40;;;;;;;11.67;80.50;98139.94;5116633;28;20044;-66
2024/04/02 01:00:50;;;;;;;0.40;0.40;;;;;;;11.75;80.63;98132.06;5116667;28;20090;-66
2024/04/02 01:03:17;;;;;;;0.82;0.82;;;;;;;11.77;80.59;98127.75;5117293;28;20043;-64
2024/04/02 01:05:44;;;;;;;0.40;0.40;;;;;;;11.77;80.23;98126.03;5116867;28;20036;-64
2024/04/02 01:08:12;;;;;;;0.45;0.45;;;;;;;11.76;80.35;98126.06;5116663;28;20092;-63
2024/04/02 01:10:40;;;;;;;0.40;0.40;;;;;;;11.70;80.10;98124.56;5116837;28;20063;-64
2024/04/02 01:13:08;;;;;;;0.40;0.40;;;;;;;11.70;80.62;98139.88;5116431;28;20413;-63
2024/04/02 01:15:36;;;;;;;0.30;0.30;;;;;;;11.74;80.13;98141.44;5116610;28;20055;-63
2024/04/02 01:18:03;;;;;;;0.40;0.40;;;;;;;11.75;79.84;98153.38;5116620;28;20043;-64
2024/04/02 01:20:30;;;;;;;0.32;0.32;;;;;;;11.69;79.69;98148.41;5116466;28;20051;-63
2024/04/02 01:22:58;;;;;;;0.30;0.30;;;;;;;11.67;79.83;98149.31;5116639;28;20040;-64
2024/04/02 01:25:26;;;;;;;0.35;0.35;;;;;;;11.63;80.06;98151.13;5117075;28;20423;-63
2024/04/02 01:27:54;;;;;;;0.40;0.40;;;;;;;11.61;79.78;98154.63;5116447;28;20042;-66
2024/04/02 01:30:21;;;;;;;0.47;0.47;;;;;;;11.59;79.36;98152.09;5116498;28;20036;-66
2024/04/02 01:32:51;;;;;;;0.40;0.40;;;;;;;11.54;80.01;98153.13;5116422;28;20039;-67
2024/04/02 01:35:18;;;;;;;0.45;0.45;;;;;;;11.55;80.12;98154.78;5116230;28;20042;-67
2024/04/02 01:37:46;;;;;;;0.32;0.32;;;;;;;11.48;80.23;98158.41;5115859;28;20039;-66
2024/04/02 01:40:13;;;;;;;0.30;0.30;;;;;;;11.45;80.49;98170.38;5115961;28;20096;-66
2024/04/02 01:42:42;;;;;;;0.40;0.40;;;;;;;11.42;80.30;98160.25;5116303;28;20374;-65
2024/04/02 01:45:09;;;;;;;0.50;0.50;;;;;;;11.43;80.73;98167.03;5116222;28;20043;-66
2024/04/02 01:47:37;;;;;;;0.25;0.25;;;;;;;11.48;80.68;98166.91;5116051;28;20032;-66
2024/04/02 01:50:04;;;;;;;0.40;0.40;;;;;;;11.44;80.64;98167.88;5098819;28;20047;-66
2024/04/02 01:52:32;;;;;;;0.43;0.43;;;;;;;11.43;81.12;98155.97;5116065;28;20035;-66
2024/04/02 01:54:59;;;;;;;0.60;0.60;;;;;;;11.35;81.05;98152.78;5115642;28;20071;-66
2024/04/02 01:57:26;;;;;;;0.30;0.30;;;;;;;11.35;81.19;98140.03;5115464;28;20040;-66
2024/04/02 01:59:54;;;;;;;0.40;0.40;;;;;;;11.38;80.85;98132.28;5116139;28;20043;-65
2024/04/02 02:02:22;;;;;;;0.40;0.40;;;;;;;11.34;81.06;98133.25;5115856;28;20039;-66
2024/04/02 02:04:49;;;;;;;0.40;0.40;;;;;;;11.30;81.23;98124.84;5115050;28;20050;-66
2024/04/02 02:07:16;;;;;;;0.32;0.32;;;;;;;11.20;80.96;98109.84;5115540;28;20031;-65
2024/04/02 02:09:43;;;;;;;0.50;0.50;;;;;;;11.08;81.09;98107.63;5115626;28;20439;-66
2024/04/02 02:12:11;;;;;;;0.30;0.30;;;;;;;11.04;81.31;98108.56;5115304;28;20032;-66
2024/04/02 02:14:38;;;;;;;0.38;0.38;;;;;;;11.03;81.32;98109.47;5115567;28;20100;-66
2024/04/02 02:17:07;;;;;;;0.40;0.40;;;;;;;11.10;81.49;98108.41;5115597;28;20497;-66
2024/04/02 02:19:34;;;;;;;0.50;0.50;;;;;;;11.11;80.95;98108.38;5114783;28;20055;-66
2024/04/02 02:22:02;;;;;;;0.40;0.40;;;;;;;11.12;81.46;98104.09;5115437;28;20047;-66
2024/04/02 02:24:29;;;;;;;0.43;0.43;;;;;;;11.13;81.11;98111.69;5115669;28;20035;-65
2024/04/02 02:26:57;;;;;;;0.40;0.40;;;;;;;11.15;81.19;98109.97;5115392;28;20047;-66
2024/04/02 02:29:25;;;;;;;0.30;0.30;;;;;;;11.20;80.99;98102.19;5114864;28;20131;-66
2024/04/02 02:31:53;;;;;;;0.40;0.40;;;;;;;11.16;80.79;98103.97;5115292;28;20027;-63
2024/04/02 02:34:21;;;;;;;0.63;0.63;;;;;;;11.00;81.02;98076.34;5114897;28;20051;-63
2024/04/02 02:36:51;;;;;;;0.22;0.22;;;;;;;11.14;81.13;98099.78;5114823;28;20047;-63
2024/04/02 02:39:19;;;;;;;0.40;0.40;;;;;;;11.13;81.23;98100.69;5114653;28;20039;-67
2024/04/02 02:41:48;;;;;;;0.40;0.40;;;;;;;11.10;80.92;98106.72;5114998;28;20028;-66
2024/04/02 02:44:14;;;;;;;0.38;0.38;;;;;;;11.08;81.52;98107.63;5114664;28;20082;-66
2024/04/02 02:46:42;;;;;;;0.30;0.30;;;;;;;11.05;81.34;98102.59;5115217;28;20032;-67
2024/04/02 02:49:09;;;;;;;0.70;0.70;;;;;;;11.02;81.42;98103.53;5115010;28;20066;-66
2024/04/02 02:51:38;;;;;;;0.30;0.30;;;;;;;10.99;81.32;98113.81;5115197;28;20043;-66
2024/04/02 02:54:05;;;;;;;0.40;0.40;;;;;;;11.01;81.39;98126.56;5114648;28;20510;-67
2024/04/02 02:56:32;;;;;;;0.32;0.32;;;;;;;11.02;81.47;98115.44;5115325;28;20390;-66
2024/04/02 02:58:59;;;;;;;0.68;0.60;;;;;;;10.98;81.77;98112.16;5114604;28;20093;-67
2024/04/02 03:01:26;;;;;;;0.40;0.40;;;;;;;10.96;81.76;98113.06;5114745;28;20528;-66
2024/04/02 03:03:53;;;;;;;0.30;0.30;;;;;;;11.01;81.56;98093.38;5114548;28;20036;-66
2024/04/02 03:06:21;;;;;;;0.63;0.57;;;;;;;10.98;81.47;98085.78;5114569;28;20155;-66
2024/04/02 03:08:49;;;;;;;0.30;0.30;;;;;;;10.93;81.71;98092.72;5114818;28;20497;-65
2024/04/02 03:11:17;;;;;;;0.40;0.40;;;;;;;10.82;81.73;98094.75;5114645;28;20046;-66
2024/04/02 03:13:44;;;;;;;0.30;0.30;;;;;;;10.85;81.71;98115.91;5114112;28;20036;-66
2024/04/02 03:16:11;;;;;;;0.30;0.30;;;;;;;10.85;81.75;98115.06;5097105;28;20035;-66
2024/04/02 03:18:38;;;;;;;0.50;0.50;;;;;;;10.80;81.47;98117.75;5113997;28;20501;-65
2024/04/02 03:21:06;;;;;;;0.30;0.30;;;;;;;10.76;82.00;98122.09;5114270;28;20051;-63
2024/04/02 03:23:33;;;;;;;0.95;0.60;;;;;;;10.76;81.91;98137.41;5114172;28;20039;-63
2024/04/02 03:26:02;;;;;;;0.68;0.68;;;;;;;10.69;81.79;98146.09;5113862;28;20032;-64
2024/04/02 03:28:30;;;;;;;0.40;0.40;;;;;;;10.66;81.63;98161.50;5114165;28;20047;-63
2024/04/02 03:30:58;;;;;;;0.60;0.60;;;;;;;10.72;81.60;98165.59;5113727;28;20036;-63
2024/04/02 03:33:26;;;;;;;0.40;0.40;;;;;;;10.74;81.65;98149.38;5113699;28;20130;-64
2024/04/02 03:35:53;;;;;;;0.70;0.70;;;;;;;10.77;81.41;98164.59;5113713;28;20047;-63
2024/04/02 03:38:22;;;;;;;0.30;0.30;;;;;;;10.81;81.62;98167.06;5113839;28;20039;-64
2024/04/02 03:40:50;;;;;;;0.32;0.32;;;;;;;10.73;81.38;98173.22;5113815;28;20145;-66
2024/04/02 03:43:19;;;;;;;0.40;0.40;;;;;;;10.73;81.47;98165.56;5113804;28;20404;-66
2024/04/02 03:45:47;;;;;;;0.45;0.45;;;;;;;10.80;81.52;98162.84;5114106;28;20039;-65
2024/04/02 03:48:14;;;;;;;0.40;0.40;;;;;;;10.81;81.18;98169.63;5113459;28;20043;-63
2024/04/02 03:50:42;;;;;;;0.40;0.40;;;;;;;10.84;81.12;98201.00;5113645;28;20051;-63
2024/04/02 03:53:08;;;;;;;0.30;0.30;;;;;;;10.81;81.10;98211.28;5113708;28;20040;-63
2024/04/02 03:55:36;;;;;;;0.40;0.40;;;;;;;10.75;81.13;98207.16;5113598;28;20485;-64
2024/04/02 03:58:04;;;;;;;0.40;0.40;;;;;;;10.77;81.45;98189.28;5113959;28;20063;-63
2024/04/02 04:00:33;;;;;;;0.30;0.30;;;;;;;10.75;82.12;98202.06;5095224;28;20044;-65
2024/04/02 04:03:00;;;;;;;0.50;0.50;;;;;;;10.51;81.56;98182.25;5113169;28;20028;-65
2024/04/02 04:05:27;;;;;;;0.40;0.40;;;;;;;10.72;81.76;98220.00;5113436;28;20058;-65
2024/04/02 04:07:55;;;;;;;0.30;0.30;;;;;;;10.77;81.70;98223.28;5113531;28;20032;-66
2024/04/02 04:10:22;;;;;;;0.30;0.30;;;;;;;10.78;82.09;98217.31;5113079;28;20055;-66
2024/04/02 04:12:49;;;;;;;0.30;0.30;;;;;;;10.80;82.30;98203.69;5113508;28;20401;-65
2024/04/02 04:15:17;;;;;;;0.30;0.30;;;;;;;10.82;82.43;98204.47;5113039;28;20051;-63
2024/04/02 04:17:45;;;;;;;0.40;0.40;;;;;;;10.81;82.30;98210.44;5113000;28;20047;-64
2024/04/02 04:20:12;;;;;;;0.60;0.60;;;;;;;10.76;82.43;98206.31;5112830;28;20051;-66
2024/04/02 04:22:39;;;;;;;0.40;0.40;;;;;;;10.70;82.81;98203.91;5113142;28;20046;-63
2024/04/02 04:25:08;;;;;;;0.40;0.40;;;;;;;10.65;82.50;98204.91;5113094;28;20039;-63
2024/04/02 04:27:37;;;;;;;;;;;;;;;10.55;82.78;98204.28;5112726;28;20040;-64
2024/04/02 04:30:06;;;;;;;0.40;0.40;;;;;;;10.50;82.47;98212.94;5096302;28;19935;-64
2024/04/02 04:32:33;;;;;;;0.30;0.30;;;;;;;10.43;82.31;98213.94;5113107;28;20047;-64
2024/04/02 04:35:02;;;;;;;0.90;0.90;;;;;;;10.32;82.92;98215.94;5113059;28;20396;-64
2024/04/02 04:37:30;;;;;;;0.60;0.60;;;;;;;10.28;82.77;98227.03;5113114;28;20040;-62
2024/04/02 04:39:58;;;;;;;0.55;0.52;;;;;;;10.26;82.63;98227.09;5096032;28;20032;-64
2024/04/02 04:42:24;;;;;;;0.45;0.45;;;;;;;10.22;83.24;98233.09;5112817;28;20047;-65
2024/04/02 04:44:52;;;;;;;5.18;0.98;;;;;;;10.23;83.09;98244.16;5112906;28;20035;-66
2024/04/02 04:47:20;;;;;;;0.75;0.70;;;;;;;10.23;83.16;98252.66;5113093;28;20493;-67
2024/04/02 04:49:47;;;;;;;0.82;0.60;;;;;;;10.15;83.23;98253.69;5112684;28;20447;-66
2024/04/02 04:52:17;;;;;;;0.40;0.40;;;;;;;10.12;83.74;98248.66;5112861;28;20036;-67
2024/04/02 04:54:44;;;;;;;0.30;0.30;;;;;;;10.08;83.40;98245.28;5112938;28;20048;-65
2024/04/02 04:57:12;;;;;;;0.35;0.35;;;;;;;10.06;83.09;98239.41;5113120;28;20485;-67
2024/04/02 04:59:38;;;;;;;0.40;0.40;;;;;;;10.07;83.39;98246.19;5112648;28;20085;-68
2024/04/02 05:02:06;;;;;;;0.90;0.68;;;;;;;10.02;83.65;98260.75;5113129;28;20517;-67
2024/04/02 05:04:33;;;;;;;0.35;0.35;;;;;;;9.98;83.62;98266.78;5095798;28;20043;-66
2024/04/02 05:07:01;;;;;;;0.32;0.32;;;;;;;9.98;83.07;98274.44;5113122;28;20131;-67
2024/04/02 05:09:29;;;;;;;0.30;0.30;;;;;;;10.00;83.57;98281.16;5112726;28;20032;-67
2024/04/02 05:11:57;;;;;;;0.35;0.35;;;;;;;9.91;83.45;98280.53;5112688;28;20040;-67
2024/04/02 05:14:24;;;;;;;0.40;0.40;;;;;;;9.88;83.79;98303.50;5112380;28;20040;-66
2024/04/02 05:16:51;;;;;;;0.30;0.30;;;;;;;9.94;83.79;98300.81;5112363;28;20166;-66
2024/04/02 05:19:18;;;;;;;0.60;0.60;;;;;;;9.94;83.50;98309.31;5112315;28;20044;-66
2024/04/02 05:21:46;;;;;;;0.55;0.50;;;;;;;9.85;83.13;98308.66;5112365;28;20146;-67
2024/04/02 05:24:12;;;;;;;1.42;1.10;;;;;;;9.83;83.78;98318.03;5095579;28;20035;-67
2024/04/02 05:26:42;;;;;;;0.32;0.32;;;;;;;9.83;83.36;98324.00;5112501;28;20040;-66
2024/04/02 05:29:08;;;;;;;0.40;0.40;;;;;;;9.87;84.12;98334.94;5112228;28;20035;-67
2024/04/02 05:31:36;;;;;;;0.40;0.40;;;;;;;9.87;84.09;98355.31;5112608;28;20501;-66
2024/04/02 05:34:03;;;;;;;0.30;0.30;;;;;;;9.85;83.88;98351.97;5112373;28;20043;-67
2024/04/02 05:36:31;;;;;;;0.40;0.40;;;;;;;9.86;83.71;98357.03;5112237;28;20507;-66
2024/04/02 05:38:57;;;;;;;0.30;0.30;;;;;;;9.83;83.96;98354.56;5112082;28;20052;-66
2024/04/02 05:41:25;;;;;;;0.40;0.40;;;;;;;9.84;84.26;98361.31;5115822;28;20054;-66
2024/04/02 05:43:53;;;;;;;0.45;0.45;;;;;;;9.87;83.78;98366.38;5116149;28;20081;-66
2024/04/02 05:46:21;;;;;;;0.80;0.80;;;;;;;9.88;83.57;98367.22;5115863;28;20405;-67
2024/04/02 05:48:47;;;;;;;0.30;0.30;;;;;;;9.88;83.46;98370.59;5115826;28;20040;-66
2024/04/02 05:51:16;;;;;;;0.30;0.30;;;;;;;9.90;84.12;98370.56;5116013;28;20047;-64
2024/04/02 05:53:44;;;;;;;0.40;0.40;;;;;;;9.90;83.49;98375.66;5115666;28;20032;-64
2024/04/02 05:56:13;;;;;;;0.40;0.40;;;;;;;9.95;84.01;98394.25;5098797;28;20401;-64
2024/04/02 05:58:40;;;;;;;0.40;0.40;;;;;;;9.96;84.07;98398.47;5115879;28;20036;-65
2024/04/02 06:01:09;;;;;;;0.40;0.40;;;;;;;9.98;83.25;98395.03;5115728;28;20069;-66
2024/04/02 06:03:35;;;;;;;0.40;0.40;;;;;;;10.00;83.99;98400.94;5115442;28;20043;-65
2024/04/02 06:06:03;;;;;;;0.50;0.50;;;;;;;10.01;83.69;98404.31;5115619;28;20084;-63
2024/04/02 06:08:30;;;;;;;0.32;0.32;;;;;;;10.02;83.52;98403.47;5115333;28;20089;-65
2024/04/02 06:10:57;;;;;;;0.45;0.45;;;;;;;10.01;83.63;98415.34;5115532;28;20062;-66
2024/04/02 06:13:24;;;;;;;0.60;0.60;;;;;;;9.99;83.10;98416.25;5115317;28;20028;-66
2024/04/02 06:15:53;;;;;;;0.45;0.45;;;;;;;9.99;83.00;98418.81;5115434;28;20121;-65
2024/04/02 06:18:23;;;;;;;0.30;0.30;;;;;;;10.00;83.43;98415.41;5115024;28;20039;-65
2024/04/02 06:20:58;;;;;;;0.50;0.50;;;;;;;10.08;82.99;98421.16;5115197;28;20279;-66
2024/04/02 06:23:25;;;;;;;0.40;0.40;;;;;;;10.08;83.21;98421.16;5112665;28;20044;-63
2024/04/02 06:25:53;;;;;;;0.60;0.60;;;;;;;10.10;83.22;98419.47;5098259;28;20054;-65
2024/04/02 06:28:20;;;;;;;0.30;0.30;;;;;;;10.14;83.07;98426.19;5098304;28;20034;-65
2024/04/02 06:30:49;;;;;;;0.22;0.22;;;;;;;10.13;82.94;98419.41;5115162;28;20052;-64
2024/04/02 06:33:16;;;;;;;0.40;0.40;;;;;;;10.13;82.82;98433.84;5115353;28;20139;-67
2024/04/02 06:35:45;;;;;;;0.80;0.80;;;;;;;10.18;82.95;98427.81;5115124;28;20036;-65
2024/04/02 06:38:12;;;;;;;0.60;0.60;;;;;;;10.18;82.18;98438.00;5115204;28;20382;-66
2024/04/02 06:40:41;;;;;;;0.43;0.43;;;;;;;10.18;82.34;98448.22;5114768;28;20023;-64
2024/04/02 06:43:08;;;;;;;;;;;;;;;10.26;82.68;98448.91;5115239;28;20039;-64
2024/04/02 06:45:35;;;;;;;0.30;0.30;;;;;;;10.30;82.23;98447.13;5114579;28;20022;-66
2024/04/02 06:48:03;;;;;;;0.40;0.40;;;;;;;10.27;82.44;98448.03;5114889;28;20040;-63
2024/04/02 06:50:30;;;;;;;0.30;0.30;;;;;;;10.31;81.81;98453.91;5114594;28;20047;-65
2024/04/02 06:52:58;;;;;;;0.50;0.50;;;;;;;10.35;82.02;98465.72;5115062;28;20034;-66
2024/04/02 06:55:26;;;;;;;0.50;0.50;;;;;;;10.27;81.57;98455.69;5115047;28;20040;-65
2024/04/02 06:57:53;;;;;;;0.40;0.40;;;;;;;10.38;81.86;98486.94;5114414;28;20168;-66
2024/04/02 07:00:21;;;;;;;0.47;0.47;;;;;;;10.42;81.64;98480.03;5114829;28;20039;-66
2024/04/02 07:02:48;;;;;;;0.50;0.50;;;;;;;10.43;80.70;98487.69;5114319;28;20042;-66
2024/04/02 07:05:15;;;;;;;0.30;0.30;;;;;;;10.45;80.97;98492.75;5115201;28;20424;-67
2024/04/02 07:07:42;;;;;;;0.55;0.55;;;;;;;10.49;80.95;98495.19;5097490;28;20028;-66
2024/04/02 07:10:11;;;;;;;0.47;0.47;;;;;;;10.52;80.64;98500.25;5114279;28;20040;-63
2024/04/02 07:12:38;;;;;;;1.17;1.08;;;;;;;10.55;80.45;98512.97;5114394;28;20108;-63
2024/04/02 07:15:06;;;;;;;0.30;0.30;;;;;;;10.56;80.33;98512.06;5114053;28;20398;-63
2024/04/02 07:17:33;;;;;;;0.30;0.30;;;;;;;10.65;80.35;98516.16;5114378;28;20042;-63
2024/04/02 07:20:01;;;;;;;0.40;0.40;;;;;;;10.72;80.75;98528.75;5113876;28;20052;-65
2024/04/02 07:22:27;;;;;;;0.40;0.40;;;;;;;10.80;80.63;98525.22;5114095;28;20040;-64
2024/04/02 07:24:55;;;;;;;9.93;0.73;;;;;;;10.84;80.58;98529.38;5113677;28;20044;-64
2024/04/02 07:27:23;;;;;;;3.58;0.82;;;;;;;10.86;80.39;98535.31;5114380;28;20429;-64
2024/04/02 07:29:51;;;;;;;0.32;0.32;;;;;;;10.91;79.94;98541.16;5113962;28;20505;-64
2024/04/02 07:32:18;;;;;;;0.50;0.50;;;;;;;10.92;79.54;98546.22;5113822;28;20036;-62
2024/04/02 07:34:46;;;;;;;0.30;0.30;;;;;;;10.97;79.62;98549.53;5113782;28;20044;-65
2024/04/02 07:37:12;;;;;;;0.40;0.40;;;;;;;11.02;79.44;98552.81;5113785;28;20054;-64
2024/04/02 07:39:40;;;;;;;0.50;0.50;;;;;;;10.97;79.55;98544.41;5113916;28;20084;-65
2024/04/02 07:42:08;;;;;;;0.50;0.50;;;;;;;11.09;79.45;98566.28;5113770;28;20043;-63
2024/04/02 07:44:38;;;;;;;0.40;0.40;;;;;;;11.12;79.22;98566.22;5113466;28;20040;-64
2024/04/02 07:47:06;;;;;;;0.40;0.40;;;;;;;11.13;78.37;98570.47;5093278;28;20106;-63
2024/04/02 07:49:33;;;;;;;0.50;0.50;;;;;;;11.18;78.89;98561.03;5093300;28;20093;-63
2024/04/02 07:52:00;;;;;;;0.63;0.50;;;;;;;11.30;78.99;98573.53;5093289;28;20036;-63
2024/04/02 07:54:28;;;;;;;0.40;0.40;;;;;;;11.37;78.97;98580.19;5093381;28;20047;-65
2024/04/02 07:56:54;;;;;;;0.73;0.55;;;;;;;11.40;78.66;98580.09;5092935;28;20090;-63
2024/04/02 07:59:22;;;;;;;0.30;0.30;;;;;;;11.42;78.58;98579.19;5093094;28;20047;-63
2024/04/02 08:01:51;;;;;;;0.30;0.30;;;;;;;11.48;78.20;98587.59;5092473;28;20078;-64
2024/04/02 08:04:20;;;;;;;0.57;0.57;;;;;;;11.52;77.84;98594.34;5092829;28;20035;-65
2024/04/02 08:06:47;;;;;;;0.45;0.45;;;;;;;11.50;77.77;98596.91;5093389;28;20048;-65
2024/04/02 08:09:15;;;;;;;0.50;0.50;;;;;;;11.51;77.51;98603.72;5092706;28;20036;-65
2024/04/02 08:11:43;;;;;;;0.70;0.70;;;;;;;11.61;77.53;98610.31;5093074;28;20498;-65
2024/04/02 08:14:11;;;;;;;0.30;0.30;;;;;;;11.71;77.58;98616.09;5093136;28;20051;-64
2024/04/02 08:16:37;;;;;;;0.40;0.40;;;;;;;11.74;76.95;98611.72;5092724;28;20040;-65
2024/04/02 08:19:06;;;;;;;0.43;0.43;;;;;;;11.82;76.91;98620.06;5092913;28;20047;-65
2024/04/02 08:21:33;;;;;;;0.60;0.60;;;;;;;11.94;76.87;98619.78;5092349;28;20051;-65
2024/04/02 08:24:02;;;;;;;0.35;0.35;;;;;;;12.02;76.48;98623.00;5092743;28;20048;-65
2024/04/02 08:26:29;;;;;;;0.40;0.40;;;;;;;12.05;76.36;98628.03;5092753;28;20032;-64
2024/04/02 08:28:57;;;;;;;0.50;0.50;;;;;;;12.15;76.25;98627.81;5092819;28;20044;-65
2024/04/02 08:31:24;;;;;;;0.50;0.50;;;;;;;12.24;76.02;98625.06;5092762;28;20044;-64
2024/04/02 08:33:51;;;;;;;0.50;0.50;;;;;;;12.31;75.66;98639.38;5092419;28;20495;-64
2024/04/02 08:36:20;;;;;;;0.40;0.40;;;;;;;12.37;75.62;98649.44;5092688;28;20044;-64
2024/04/02 08:38:48;;;;;;;0.32;0.32;;;;;;;12.32;75.06;98651.28;5092944;28;20040;-65
2024/04/02 08:41:18;;;;;;;0.50;0.50;;;;;;;12.22;74.83;98662.59;5092978;28;20039;-64
2024/04/02 08:43:48;;;;;;;0.73;0.73;;;;;;;12.19;75.27;98670.38;5092584;28;20406;-65
2024/04/02 08:46:15;;;;;;;;;;;;;;;12.13;75.50;98670.50;5092800;28;20490;-65
2024/04/02 08:48:44;;;;;;;0.60;0.60;;;;;;;12.09;75.74;98675.69;5075577;28;19920;-65
2024/04/02 08:51:11;;;;;;;0.40;0.40;;;;;;;12.01;75.82;98682.69;5092672;28;20044;-64
2024/04/02 08:53:40;;;;;;;0.30;0.30;;;;;;;11.91;75.88;98683.78;5092528;28;20044;-65
2024/04/02 08:56:06;;;;;;;1.30;0.93;;;;;;;11.90;76.47;98694.88;5095436;28;20092;-64
2024/04/02 08:58:35;;;;;;;0.60;0.60;;;;;;;11.96;76.64;98692.19;5100443;28;20043;-65
2024/04/02 09:01:03;;;;;;;0.37;0.37;;;;;;;12.01;76.88;98698.03;5092387;28;20036;-65
2024/04/02 09:03:31;;;;;;;0.65;0.65;;;;;;;12.04;76.88;98703.06;5092684;28;20036;-65
2024/04/02 09:05:58;;;;;;;0.40;0.40;;;;;;;12.04;76.93;98694.59;5092018;28;20394;-63
2024/04/02 09:08:25;;;;;;;0.82;0.82;;;;;;;11.97;76.78;98716.88;5092462;28;20494;-65
2024/04/02 09:10:54;;;;;;;0.35;0.35;;;;;;;11.98;76.54;98713.44;5092380;28;20088;-64
2024/04/02 09:13:21;;;;;;;0.77;0.77;;;;;;;11.98;76.50;98718.56;5092957;28;20036;-65
2024/04/02 09:15:48;;;;;;;0.50;0.50;;;;;;;11.98;76.52;98713.44;5079342;28;20040;-64
2024/04/02 09:18:16;;;;;;;0.40;0.40;;;;;;;12.06;76.44;98721.81;5095882;28;20065;-65
2024/04/02 09:20:42;;;;;;;0.40;0.40;;;;;;;12.10;76.41;98710.63;5096245;28;20028;-64
2024/04/02 09:23:11;;;;;;;0.40;0.40;;;;;;;12.13;76.48;98719.09;5096385;28;20037;-64
2024/04/02 09:25:39;;;;;;;0.65;0.65;;;;;;;12.13;76.25;98716.53;5096156;28;20043;-64
2024/04/02 09:28:08;;;;;;;0.40;0.40;;;;;;;12.17;76.21;98729.22;5096005;28;20044;-64
2024/04/02 09:30:36;;;;;;;0.38;0.38;;;;;;;12.26;76.01;98740.97;5114233;28;20074;-64
2024/04/02 09:33:04;;;;;;;0.40;0.40;;;;;;;12.26;75.73;98738.44;5099269;28;20059;-64
2024/04/02 09:35:50;;;;;;;0.43;0.43;;;;;;;12.28;75.75;98739.22;5099088;28;20032;-65
2024/04/02 09:38:20;;;;;;;1.25;1.15;;;;;;;12.37;75.61;98736.44;5116329;28;20497;-65
2024/04/02 09:40:47;;;;;;;0.30;0.30;;;;;;;12.47;75.54;98743.03;5116262;28;20046;-65
2024/04/02 09:43:20;;;;;;;0.55;0.40;;;;;;;12.53;75.16;98741.16;5116145;28;20055;-65
2024/04/02 09:45:48;;;;;;;0.40;0.40;;;;;;;12.59;74.89;98738.47;5116378;28;20043;-65
2024/04/02 09:48:17;;;;;;;0.60;0.60;;;;;;;12.72;74.71;98749.25;5116099;28;20034;-64
2024/04/02 09:50:45;;;;;;;0.40;0.40;;;;;;;12.79;74.61;98745.66;5116337;28;20039;-64
2024/04/02 09:53:15;;;;;;;0.50;0.50;;;;;;;12.88;74.34;98745.44;5116027;28;20043;-64
2024/04/02 09:55:43;;;;;;;0.47;0.47;;;;;;;13.00;73.81;98760.50;5099047;28;20512;-64
2024/04/02 09:58:13;;;;;;;0.40;0.40;;;;;;;13.17;73.54;98757.56;5099043;28;20520;-64
2024/04/02 10:00:46;;;;;;;0.80;0.77;;;;;;;13.46;73.33;98764.47;5115507;28;20046;-64
2024/04/02 10:03:16;;;;;;;0.30;0.30;;;;;;;13.77;72.69;98750.72;5115832;28;20482;-64
2024/04/02 10:05:44;;;;;;;0.40;0.40;;;;;;;14.08;71.70;98760.97;5116355;28;20359;-64
2024/04/02 10:08:12;;;;;;;0.43;0.43;;;;;;;14.36;71.26;98746.44;5115690;28;20042;-64
2024/04/02 10:10:40;;;;;;;0.47;0.47;;;;;;;14.70;70.12;98721.38;5098632;28;20046;-65
2024/04/02 10:13:08;;;;;;;0.95;0.55;;;;;;;14.93;67.94;98753.16;5115300;28;20417;-64
2024/04/02 10:15:35;;;;;;;0.40;0.40;;;;;;;15.09;66.90;98744.06;5115587;28;20031;-65
2024/04/02 10:18:04;;;;;;;0.40;0.40;;;;;;;15.46;67.64;98744.47;5116062;28;20032;-64
2024/04/02 10:20:33;;;;;;;0.30;0.30;;;;;;;15.97;67.41;98746.91;5098308;28;20044;-65
2024/04/02 10:23:02;;;;;;;0.30;0.30;;;;;;;15.75;65.94;98736.56;5081569;28;20088;-65
2024/04/02 10:25:31;;;;;;;0.40;0.40;;;;;;;15.56;64.64;98756.13;5114685;28;20054;-65
2024/04/02 10:28:03;;;;;;;0.50;0.50;;;;;;;15.44;64.86;98746.25;5115220;28;20058;-65
2024/04/02 10:30:31;;;;;;;0.30;0.30;;;;;;;15.25;63.95;98735.78;5098387;28;20128;-66
2024/04/02 10:32:59;;;;;;;0.30;0.30;;;;;;;15.08;63.79;98752.66;5115140;28;20059;-65
2024/04/02 10:35:28;;;;;;;0.40;0.40;;;;;;;15.07;64.10;98756.13;5115445;28;20498;-65
2024/04/02 10:37:57;;;;;;;0.63;0.63;;;;;;;15.14;63.89;98748.13;5115164;28;20049;-65
2024/04/02 10:40:25;;;;;;;0.40;0.40;;;;;;;15.43;64.08;98754.84;5114847;28;20485;-65
2024/04/02 10:42:53;;;;;;;0.40;0.40;;;;;;;15.54;64.01;98750.22;5114901;28;20040;-64
2024/04/02 10:45:20;;;;;;;0.40;0.40;;;;;;;15.73;63.30;98740.94;5115283;28;20081;-66
2024/04/02 10:47:48;;;;;;;0.40;0.40;;;;;;;15.83;63.37;98750.00;5114798;28;20409;-66
2024/04/02 10:50:15;;;;;;;0.32;0.32;;;;;;;15.75;62.49;98746.00;5114651;28;20480;-66
2024/04/02 10:52:45;;;;;;;0.50;0.50;;;;;;;15.59;61.88;98748.31;5114931;28;20069;-65
2024/04/02 10:55:11;;;;;;;0.40;0.40;;;;;;;15.44;61.55;98751.38;5114776;28;20035;-64
2024/04/02 10:57:41;;;;;;;0.88;0.88;;;;;;;15.26;61.51;98746.91;5114832;28;20048;-66
2024/04/02 11:00:09;;;;;;;0.68;0.68;;;;;;;15.02;60.74;98742.59;5114661;28;20036;-65
2024/04/02 11:02:38;;;;;;;0.50;0.50;;;;;;;14.86;62.08;98741.41;5097573;28;20036;-65
2024/04/02 11:05:06;;;;;;;0.40;0.40;;;;;;;14.83;62.66;98751.81;5114745;28;20032;-65
2024/04/02 11:07:34;;;;;;;0.50;0.50;;;;;;;14.77;62.87;98751.09;5114416;28;20043;-66
2024/04/02 11:10:03;;;;;;;0.73;0.70;;;;;;;14.67;63.19;98747.16;5114520;28;20046;-65
2024/04/02 11:12:31;;;;;;;0.40;0.40;;;;;;;14.70;62.93;98759.91;5114328;28;20050;-65
2024/04/02 11:14:58;;;;;;;0.40;0.40;;;;;;;14.73;62.51;98761.53;5114095;28;20035;-66
2024/04/02 11:17:26;;;;;;;0.30;0.30;;;;;;;14.76;62.32;98762.25;5097207;28;20043;-65
2024/04/02 11:19:53;;;;;;;0.93;0.93;;;;;;;14.70;61.74;98762.47;5114049;28;20553;-64
2024/04/02 11:25:11;;;;;;;0.50;0.50;;;;;;;14.54;61.94;98766.38;5097476;28;20088;-66
2024/04/02 11:27:40;;;;;;;0.40;0.40;;;;;;;14.34;62.48;98768.75;5080347;28;20061;-66
2024/04/02 11:30:09;;;;;;;0.45;0.45;;;;;;;14.31;62.77;98791.94;5097126;28;20102;-65
2024/04/02 11:32:37;;;;;;;0.30;0.30;;;;;;;14.13;62.33;98777.06;5113971;28;20024;-66
2024/04/02 11:35:06;;;;;;;0.30;0.30;;;;;;;14.22;62.22;98779.34;5096869;28;20047;-66
2024/04/02 11:37:33;;;;;;;;;;;;;;;14.69;62.93;98776.19;5113424;28;20044;-66
2024/04/02 11:40:01;;;;;;;0.45;0.45;;;;;;;15.25;63.55;98770.91;5113746;28;19919;-65